createdAt,value
2023-08-22T00:01:05.172Z,3.03
2023-08-22T00:03:33.581Z,2.88
2023-08-22T00:06:01.800Z,2.92
2023-08-22T00:08:30.225Z,2.90
2023-08-22T00:11:00.439Z,2.30
2023-08-22T00:13:30.215Z,2.90
2023-08-22T00:16:01.031Z,2.63
2023-08-22T00:18:29.693Z,2.78
2023-08-22T00:20:57.918Z,2.88
2023-08-22T00:23:26.121Z,2.40
2023-08-22T00:25:55.236Z,3.17
2023-08-22T00:28:24.000Z,3.05
2023-08-22T00:30:55.704Z,2.65
2023-08-22T00:33:23.923Z,3.00
2023-08-22T00:35:52.070Z,2.53
2023-08-22T00:38:20.309Z,2.80
2023-08-22T00:40:48.518Z,3.08
2023-08-22T00:43:18.172Z,3.08
2023-08-22T00:45:46.565Z,3.08
2023-08-22T00:48:17.574Z,3.30
2023-08-22T00:50:47.568Z,2.47
2023-08-22T00:53:16.679Z,3.00
2023-08-22T00:55:46.681Z,3.03
2023-08-22T00:58:15.342Z,3.60
2023-08-22T01:00:43.703Z,3.42
2023-08-22T01:03:12.694Z,3.40
2023-08-22T01:05:54.937Z,3.97
2023-08-22T01:08:36.008Z,4.05
2023-08-22T01:11:14.758Z,3.30
2023-08-22T01:13:48.389Z,3.17
2023-08-22T01:16:18.046Z,3.55
2023-08-22T01:18:48.019Z,3.58
2023-08-22T01:21:22.211Z,3.58
2023-08-22T01:23:51.898Z,2.70
2023-08-22T01:26:20.105Z,3.40
2023-08-22T01:28:54.507Z,3.35
2023-08-22T01:31:34.080Z,3.40
2023-08-22T01:34:13.821Z,3.35
2023-08-22T01:36:44.569Z,3.03
2023-08-22T01:39:18.026Z,3.40
2023-08-22T01:41:49.017Z,2.80
2023-08-22T01:44:17.558Z,3.00
2023-08-22T01:46:46.845Z,3.17
2023-08-22T01:49:15.015Z,3.35
2023-08-22T01:51:43.197Z,2.95
2023-08-22T01:54:12.907Z,2.88
2023-08-22T01:56:41.029Z,3.17
2023-08-22T01:59:09.191Z,3.85
2023-08-22T02:01:37.480Z,3.10
2023-08-22T02:04:06.132Z,3.00
2023-08-22T02:06:34.371Z,3.25
2023-08-22T02:09:02.514Z,3.40
2023-08-22T02:11:32.129Z,2.97
2023-08-22T02:14:00.498Z,3.20
2023-08-22T02:16:29.067Z,3.03
2023-08-22T02:18:57.287Z,3.90
2023-08-22T02:21:26.017Z,3.45
2023-08-22T02:23:54.139Z,3.30
2023-08-22T02:26:22.571Z,3.53
2023-08-22T02:28:55.884Z,3.25
2023-08-22T02:31:24.072Z,3.55
2023-08-22T02:33:52.387Z,3.33
2023-08-22T02:36:20.820Z,3.00
2023-08-22T02:38:48.995Z,3.53
2023-08-22T02:41:17.177Z,2.97
2023-08-22T02:43:52.872Z,3.10
2023-08-22T02:46:23.247Z,2.67
2023-08-22T02:48:52.736Z,2.88
2023-08-22T02:51:21.015Z,2.92
2023-08-22T02:53:55.582Z,3.08
2023-08-22T02:56:24.293Z,2.85
2023-08-22T02:59:00.955Z,3.00
2023-08-22T03:01:29.276Z,3.13
2023-08-22T03:03:57.752Z,2.92
2023-08-22T03:06:26.085Z,2.72
2023-08-22T03:08:54.469Z,2.60
2023-08-22T03:11:26.514Z,3.00
2023-08-22T03:36:14.932Z,3.20
2023-08-22T03:38:43.321Z,3.10
2023-08-22T03:41:11.705Z,3.42
2023-08-22T03:43:42.967Z,3.30
2023-08-22T03:46:13.494Z,3.30
2023-08-22T03:48:45.382Z,3.45
2023-08-22T03:51:15.990Z,3.13
2023-08-22T03:53:44.257Z,3.35
2023-08-22T03:56:12.565Z,2.88
2023-08-22T03:58:40.805Z,3.58
2023-08-22T04:01:09.271Z,3.17
2023-08-22T04:03:38.018Z,3.15
2023-08-22T04:06:09.101Z,2.88
2023-08-22T04:08:40.176Z,3.28
2023-08-22T04:11:08.446Z,3.25
2023-08-22T04:13:36.764Z,2.75
2023-08-22T04:16:05.124Z,2.67
2023-08-22T04:18:33.411Z,3.03
2023-08-22T04:21:27.762Z,2.90
2023-08-22T04:23:58.176Z,2.63
2023-08-22T04:30:51.903Z,2.80
2023-08-22T04:33:20.252Z,2.97
2023-08-22T04:35:51.454Z,3.22
2023-08-22T04:38:20.147Z,3.20
2023-08-22T04:40:50.216Z,3.78
2023-08-22T04:43:37.041Z,3.45
2023-08-22T04:46:08.220Z,3.50
2023-08-22T04:48:36.413Z,3.20
2023-08-22T04:51:05.418Z,3.50
2023-08-22T04:53:33.884Z,3.47
2023-08-22T04:56:03.574Z,3.33
2023-08-22T04:58:33.617Z,3.50
2023-08-22T05:01:01.956Z,3.03
2023-08-22T05:03:30.224Z,3.08
2023-08-22T05:05:58.473Z,3.25
2023-08-22T05:08:27.054Z,3.05
2023-08-22T05:10:55.436Z,3.35
2023-08-22T05:13:26.052Z,3.85
2023-08-22T05:15:54.230Z,3.00
2023-08-22T05:18:22.600Z,3.38
2023-08-22T05:20:52.906Z,3.08
2023-08-22T05:23:21.500Z,2.88
2023-08-22T05:25:49.727Z,2.80
2023-08-22T05:28:17.919Z,3.17
2023-08-22T05:30:48.399Z,3.15
2023-08-22T05:33:16.864Z,3.05
2023-08-22T05:35:45.130Z,2.95
2023-08-22T05:38:14.985Z,3.13
2023-08-22T05:40:43.441Z,3.45
2023-08-22T05:43:12.135Z,3.03
2023-08-22T05:45:41.331Z,3.17
2023-08-22T05:48:11.015Z,3.33
2023-08-22T05:50:39.803Z,3.25
2023-08-22T05:53:08.025Z,3.25
2023-08-22T05:55:36.334Z,3.28
2023-08-22T05:58:06.429Z,3.83
2023-08-22T06:00:34.911Z,4.10
2023-08-22T06:03:03.762Z,3.67
2023-08-22T06:05:33.367Z,3.30
2023-08-22T06:08:01.560Z,3.63
2023-08-22T06:10:29.800Z,3.95
2023-08-22T06:12:57.994Z,3.90
2023-08-22T06:15:26.303Z,3.90
2023-08-22T06:17:55.316Z,4.22
2023-08-22T06:20:23.599Z,3.88
2023-08-22T06:22:53.202Z,4.47
2023-08-22T06:25:22.256Z,4.00
2023-08-22T06:27:50.639Z,4.47
2023-08-22T06:30:19.232Z,4.50
2023-08-22T06:32:47.786Z,4.50
2023-08-22T06:35:16.218Z,4.88
2023-08-22T06:37:44.809Z,4.85
2023-08-22T06:40:17.481Z,4.57
2023-08-22T06:42:45.735Z,4.55
2023-08-22T06:45:14.244Z,4.60
2023-08-22T06:47:43.123Z,4.25
2023-08-22T06:50:13.545Z,4.72
2023-08-22T06:52:41.854Z,4.82
2023-08-22T06:55:10.543Z,4.85
2023-08-22T06:57:42.291Z,4.60
2023-08-22T07:00:16.232Z,4.38
2023-08-22T07:02:46.363Z,4.63
2023-08-22T07:05:17.246Z,4.68
2023-08-22T07:07:45.675Z,4.65
2023-08-22T07:10:18.093Z,4.65
2023-08-22T07:12:48.438Z,4.80
2023-08-22T07:15:17.147Z,4.28
2023-08-22T07:17:46.473Z,4.47
2023-08-22T07:20:15.825Z,4.57
2023-08-22T07:22:44.603Z,4.15
2023-08-22T07:25:13.283Z,4.70
2023-08-22T07:27:41.942Z,3.92
2023-08-22T07:30:15.449Z,4.90
2023-08-22T07:32:44.218Z,4.20
2023-08-22T07:35:12.916Z,4.82
2023-08-22T07:37:41.275Z,3.80
2023-08-22T07:40:10.940Z,3.67
2023-08-22T07:42:39.612Z,3.63
2023-08-22T07:45:11.446Z,3.63
2023-08-22T07:47:39.883Z,3.63
2023-08-22T07:50:09.402Z,4.03
2023-08-22T07:52:37.891Z,4.05
2023-08-22T07:55:07.519Z,3.83
2023-08-22T07:57:35.990Z,3.78
2023-08-22T08:00:07.559Z,3.78
2023-08-22T08:02:41.964Z,4.15
2023-08-22T08:05:13.658Z,3.50
2023-08-22T08:07:42.366Z,3.33
2023-08-22T08:10:12.185Z,3.67
2023-08-22T08:12:40.649Z,2.83
2023-08-22T08:15:10.490Z,3.22
2023-08-22T08:17:39.015Z,3.10
2023-08-22T08:20:12.432Z,3.30
2023-08-22T08:22:40.861Z,3.03
2023-08-22T08:25:10.604Z,3.10
2023-08-22T08:27:39.131Z,3.58
2023-08-22T08:30:13.830Z,3.10
2023-08-22T08:32:42.465Z,3.03
2023-08-22T08:35:15.264Z,3.70
2023-08-22T08:37:43.953Z,2.80
2023-08-22T08:40:13.354Z,2.80
2023-08-22T08:42:42.854Z,2.50
2023-08-22T08:45:14.194Z,3.35
2023-08-22T08:47:43.879Z,3.00
2023-08-22T08:50:14.455Z,2.38
2023-08-22T08:52:46.977Z,2.15
2023-08-22T08:55:20.717Z,1.92
2023-08-22T08:57:54.621Z,2.45
2023-08-22T09:00:23.493Z,2.58
2023-08-22T09:02:56.071Z,3.53
2023-08-22T09:05:26.197Z,2.60
2023-08-22T09:07:54.763Z,2.08
2023-08-22T09:10:37.193Z,2.10
2023-08-22T09:13:06.607Z,2.45
2023-08-22T09:15:35.611Z,2.15
2023-08-22T09:18:04.282Z,2.30
2023-08-22T09:20:35.154Z,2.63
2023-08-22T09:23:04.977Z,1.90
2023-08-22T09:25:41.271Z,2.08
2023-08-22T09:28:12.919Z,2.42
2023-08-22T09:30:50.424Z,2.22
2023-08-22T09:33:19.311Z,1.80
2023-08-22T09:35:52.617Z,2.08
2023-08-22T09:38:21.435Z,2.13
2023-08-22T09:40:56.774Z,2.15
2023-08-22T09:43:25.237Z,1.95
2023-08-22T09:45:57.221Z,2.28
2023-08-22T09:48:47.464Z,2.05
2023-08-22T09:51:24.788Z,2.00
2023-08-22T09:54:00.803Z,2.10
2023-08-22T09:56:32.248Z,1.80
2023-08-22T09:59:03.502Z,1.80
2023-08-22T10:01:36.736Z,2.00
2023-08-22T10:04:08.927Z,1.90
2023-08-22T10:06:47.001Z,1.80
2023-08-22T10:09:19.817Z,2.00
2023-08-22T10:11:56.998Z,1.90
2023-08-22T10:14:33.707Z,1.90
2023-08-22T10:17:03.277Z,1.60
2023-08-22T10:19:38.846Z,1.60
2023-08-22T10:22:17.430Z,1.70
2023-08-22T10:24:50.090Z,1.70
2023-08-22T10:27:21.062Z,1.88
2023-08-22T10:30:20.691Z,1.80
2023-08-22T10:33:17.105Z,1.60
2023-08-22T10:36:05.670Z,2.08
2023-08-22T10:38:55.353Z,1.98
2023-08-22T10:41:24.801Z,1.70
2023-08-22T10:43:58.232Z,1.75
2023-08-22T10:47:02.570Z,1.70
2023-08-22T10:49:31.840Z,1.90
2023-08-22T10:52:08.234Z,2.03
2023-08-22T10:54:59.913Z,1.60
2023-08-22T10:57:33.761Z,2.05
2023-08-22T11:00:15.308Z,1.70
2023-08-22T11:02:46.326Z,1.85
2023-08-22T11:05:17.042Z,1.90
2023-08-22T11:07:48.033Z,1.80
2023-08-22T11:10:21.643Z,2.00
2023-08-22T11:12:51.370Z,1.60
2023-08-22T11:15:20.477Z,1.98
2023-08-22T11:17:50.323Z,1.83
2023-08-22T11:20:21.526Z,1.85
2023-08-22T11:22:50.501Z,1.83
2023-08-22T11:25:28.034Z,1.80
2023-08-22T11:27:56.562Z,1.80
2023-08-22T11:30:25.175Z,1.70
2023-08-22T11:32:53.377Z,1.85
2023-08-22T11:35:21.796Z,1.80
2023-08-22T11:37:53.406Z,1.60
2023-08-22T11:40:22.024Z,1.30
2023-08-22T11:42:51.993Z,1.77
2023-08-22T11:45:22.784Z,1.58
2023-08-22T11:47:54.533Z,1.63
2023-08-22T11:50:26.640Z,1.52
2023-08-22T11:52:56.778Z,1.98
2023-08-22T11:55:28.383Z,1.45
2023-08-22T11:58:01.905Z,1.58
2023-08-22T12:00:32.912Z,1.70
2023-08-22T12:03:06.767Z,1.52
2023-08-22T12:05:37.866Z,1.70
2023-08-22T12:08:24.655Z,1.60
2023-08-22T12:10:59.784Z,1.33
2023-08-22T12:13:30.478Z,1.58
2023-08-22T12:15:58.831Z,1.52
2023-08-22T12:18:32.005Z,1.40
2023-08-22T12:21:00.431Z,2.03
2023-08-22T12:23:28.810Z,1.80
2023-08-22T12:25:57.180Z,1.52
2023-08-22T12:28:25.932Z,1.42
2023-08-22T12:30:55.808Z,1.67
2023-08-22T12:33:24.813Z,1.60
2023-08-22T12:35:53.347Z,1.23
2023-08-22T12:38:21.787Z,1.50
2023-08-22T12:40:50.373Z,1.50
2023-08-22T12:43:19.122Z,1.42
2023-08-22T12:45:47.553Z,1.48
2023-08-22T12:48:17.366Z,1.40
2023-08-22T12:50:45.738Z,1.60
2023-08-22T12:53:14.163Z,1.40
2023-08-22T12:55:43.287Z,1.20
2023-08-22T12:58:11.580Z,1.45
2023-08-22T13:00:40.229Z,1.48
2023-08-22T13:03:10.127Z,1.50
2023-08-22T13:05:40.227Z,1.50
2023-08-22T13:08:09.031Z,1.60
2023-08-22T13:10:39.403Z,1.70
2023-08-22T13:13:07.691Z,2.20
2023-08-22T13:15:35.918Z,1.70
2023-08-22T13:18:04.496Z,1.60
2023-08-22T13:20:33.104Z,1.60
2023-08-22T13:23:02.842Z,1.60
2023-08-22T13:25:30.997Z,1.60
2023-08-22T13:27:59.261Z,1.42
2023-08-22T13:30:29.550Z,1.48
2023-08-22T13:32:57.927Z,1.50
2023-08-22T13:35:26.420Z,1.23
2023-08-22T13:37:54.767Z,1.48
2023-08-22T13:40:24.702Z,1.40
2023-08-22T13:42:53.034Z,1.77
2023-08-22T13:45:21.663Z,1.70
2023-08-22T13:47:50.188Z,1.60
2023-08-22T13:50:19.028Z,1.52
2023-08-22T13:52:47.475Z,1.73
2023-08-22T13:55:15.991Z,1.55
2023-08-22T13:57:45.722Z,1.98
2023-08-22T14:00:15.465Z,2.22
2023-08-22T14:02:43.739Z,2.20
2023-08-22T14:05:12.175Z,2.17
2023-08-22T14:07:40.546Z,1.90
2023-08-22T14:10:11.246Z,1.85
2023-08-22T14:12:39.741Z,1.77
2023-08-22T14:15:11.185Z,2.30
2023-08-22T14:17:39.557Z,1.77
2023-08-22T14:20:09.932Z,1.90
2023-08-22T14:22:38.384Z,1.52
2023-08-22T14:25:07.356Z,1.77
2023-08-22T14:27:35.498Z,1.80
2023-08-22T14:30:04.093Z,1.85
2023-08-22T14:32:34.184Z,2.13
2023-08-22T14:35:02.737Z,3.60
2023-08-22T14:37:31.182Z,2.28
2023-08-22T14:39:59.480Z,1.92
2023-08-22T14:42:31.204Z,1.73
2023-08-22T14:44:59.445Z,1.70
2023-08-22T14:47:27.680Z,2.03
2023-08-22T14:49:57.257Z,1.77
2023-08-22T14:52:25.494Z,1.98
2023-08-22T14:54:55.282Z,1.88
2023-08-22T14:57:24.250Z,1.98
2023-08-22T14:59:52.612Z,2.17
2023-08-22T15:02:20.916Z,1.92
2023-08-22T15:04:49.185Z,2.20
2023-08-22T15:07:19.217Z,2.28
2023-08-22T15:09:48.893Z,2.08
2023-08-22T15:12:18.595Z,2.03
2023-08-22T15:14:47.009Z,2.20
2023-08-22T15:17:15.453Z,1.77
2023-08-22T15:19:43.730Z,2.20
2023-08-22T15:22:12.199Z,2.55
2023-08-22T15:24:42.234Z,2.15
2023-08-22T15:27:12.150Z,2.20
2023-08-22T15:29:40.748Z,2.42
2023-08-22T15:32:09.396Z,2.38
2023-08-22T15:34:37.676Z,2.40
2023-08-22T15:37:06.454Z,2.25
2023-08-22T15:39:34.738Z,2.47
2023-08-22T15:42:04.611Z,2.28
2023-08-22T15:44:32.873Z,2.08
2023-08-22T15:47:01.157Z,2.40
2023-08-22T15:49:29.409Z,2.50
2023-08-22T15:51:57.869Z,2.15
2023-08-22T15:54:26.044Z,2.30
2023-08-22T15:56:54.237Z,2.22
2023-08-22T15:59:24.042Z,2.45
2023-08-22T16:01:52.491Z,2.40
2023-08-22T16:04:21.007Z,2.85
2023-08-22T16:06:49.374Z,2.50
2023-08-22T16:09:17.702Z,2.90
2023-08-22T16:11:48.151Z,3.08
2023-08-22T16:14:16.804Z,3.13
2023-08-22T16:16:49.596Z,2.75
2023-08-22T16:19:18.159Z,3.08
2023-08-22T16:21:46.853Z,3.00
2023-08-22T16:24:15.536Z,3.08
2023-08-22T16:26:44.270Z,3.00
2023-08-22T16:29:12.650Z,3.22
2023-08-22T16:31:41.356Z,3.17
2023-08-22T16:34:11.268Z,2.95
2023-08-22T16:36:40.278Z,3.55
2023-08-22T16:39:08.900Z,3.85
2023-08-22T16:41:37.364Z,3.20
2023-08-22T16:44:08.156Z,3.17
2023-08-22T16:46:36.386Z,3.25
2023-08-22T16:49:04.689Z,3.55
2023-08-22T16:51:34.580Z,3.10
2023-08-22T16:54:10.706Z,3.33
2023-08-22T16:56:40.603Z,3.75
2023-08-22T16:59:10.038Z,4.35
2023-08-22T17:01:38.506Z,3.92
2023-08-22T17:04:06.950Z,4.60
2023-08-22T17:06:38.063Z,3.53
2023-08-22T17:09:07.824Z,5.00
2023-08-22T17:11:36.198Z,4.30
2023-08-22T17:14:05.903Z,4.30
2023-08-22T17:16:34.517Z,3.83
2023-08-22T17:19:05.001Z,3.70
2023-08-22T17:21:33.612Z,4.00
2023-08-22T17:24:06.810Z,4.55
2023-08-22T17:26:35.139Z,3.30
2023-08-22T17:29:03.398Z,3.83
2023-08-22T17:31:34.491Z,4.38
2023-08-22T17:34:03.055Z,4.55
2023-08-22T17:36:31.682Z,3.97
2023-08-22T17:39:04.364Z,4.68
2023-08-22T17:41:36.713Z,4.70
2023-08-22T17:44:05.490Z,4.72
2023-08-22T17:46:33.839Z,4.68
2023-08-22T17:49:02.214Z,4.07
2023-08-22T17:51:30.562Z,4.82
2023-08-22T17:53:59.181Z,4.72
2023-08-22T17:56:27.747Z,4.30
2023-08-22T17:58:57.465Z,4.90
2023-08-22T18:01:33.345Z,4.30
2023-08-22T18:04:02.967Z,4.28
2023-08-22T18:06:31.276Z,4.32
2023-08-22T18:08:59.811Z,3.67
2023-08-22T18:11:28.044Z,5.07
2023-08-22T18:13:57.546Z,4.13
2023-08-22T18:16:41.984Z,4.30
2023-08-22T18:19:10.209Z,4.30
2023-08-22T18:21:38.478Z,4.18
2023-08-22T18:24:07.118Z,4.65
2023-08-22T18:26:35.491Z,4.55
2023-08-22T18:29:04.996Z,4.97
2023-08-22T18:31:33.658Z,4.55
2023-08-22T18:34:01.856Z,5.70
2023-08-22T18:36:31.235Z,5.22
2023-08-22T18:38:59.709Z,4.47
2023-08-22T18:41:28.965Z,5.80
2023-08-22T18:43:57.252Z,5.05
2023-08-22T18:46:28.134Z,5.38
2023-08-22T18:48:56.406Z,5.00
2023-08-22T18:51:24.764Z,5.20
2023-08-22T18:53:52.979Z,5.45
2023-08-22T18:56:21.216Z,5.57
2023-08-22T18:58:49.474Z,5.47
2023-08-22T19:01:18.998Z,5.97
2023-08-22T19:03:48.935Z,5.43
2023-08-22T19:06:18.347Z,5.70
2023-08-22T19:08:53.799Z,5.18
2023-08-22T19:11:22.262Z,6.72
2023-08-22T19:13:51.002Z,5.60
2023-08-22T19:16:21.970Z,5.38
2023-08-22T19:18:51.888Z,5.05
2023-08-22T19:21:22.818Z,4.88
2023-08-22T19:23:54.330Z,5.85
2023-08-22T19:26:22.713Z,5.38
2023-08-22T19:28:51.161Z,5.85
2023-08-22T19:31:27.983Z,5.53
2023-08-22T19:33:59.175Z,4.78
2023-08-22T19:36:28.054Z,4.57
2023-08-22T19:38:59.242Z,4.93
2023-08-22T19:41:27.797Z,5.18
2023-08-22T19:43:56.553Z,4.90
2023-08-22T19:46:25.313Z,4.90
2023-08-22T19:48:53.832Z,5.47
2023-08-22T19:51:23.962Z,5.28
2023-08-22T19:53:52.432Z,5.00
2023-08-22T19:56:20.860Z,5.30
2023-08-22T19:58:49.551Z,5.43
2023-08-22T20:01:18.124Z,5.53
2023-08-22T20:03:46.520Z,5.90
2023-08-22T20:06:14.884Z,6.25
2023-08-22T20:08:45.048Z,6.22
2023-08-22T20:11:15.255Z,6.53
2023-08-22T20:13:46.873Z,5.95
2023-08-22T20:16:15.618Z,5.75
2023-08-22T20:18:46.070Z,5.28
2023-08-22T20:25:01.539Z,5.15
2023-08-22T20:27:29.947Z,5.03
2023-08-22T20:29:58.655Z,5.03
2023-08-22T20:32:27.044Z,5.20
2023-08-22T20:34:55.314Z,5.20
2023-08-22T20:37:23.718Z,5.00
2023-08-22T20:39:52.217Z,5.40
2023-08-22T20:42:22.290Z,5.07
2023-08-22T20:44:50.983Z,5.80
2023-08-22T20:47:19.620Z,5.90
2023-08-22T20:49:49.077Z,5.88
2023-08-22T20:52:17.672Z,6.20
2023-08-22T20:54:46.158Z,6.03
2023-08-22T20:57:14.669Z,6.57
2023-08-22T20:59:45.468Z,6.60
2023-08-22T21:02:14.957Z,5.82
2023-08-22T21:04:43.631Z,5.90
2023-08-22T21:07:12.120Z,6.63
2023-08-22T21:09:40.652Z,6.38
2023-08-22T21:12:12.293Z,5.78
2023-08-22T21:14:40.633Z,5.10
2023-08-22T21:17:10.471Z,4.80
2023-08-22T21:19:38.903Z,4.28
2023-08-22T21:22:07.371Z,5.35
2023-08-22T21:25:08.277Z,5.38
2023-08-22T21:27:36.537Z,5.30
2023-08-22T21:30:05.605Z,4.53
2023-08-22T21:32:36.467Z,5.40
2023-08-22T21:35:05.427Z,4.90
2023-08-22T21:37:33.806Z,5.22
2023-08-22T21:40:02.313Z,6.28
2023-08-22T21:42:30.808Z,6.95
2023-08-22T21:44:59.298Z,5.82
2023-08-22T21:47:41.526Z,6.30
2023-08-22T21:50:11.867Z,6.55
2023-08-22T21:52:40.554Z,6.22
2023-08-22T21:57:58.156Z,6.32
2023-08-22T22:00:27.075Z,5.68
2023-08-22T22:02:59.770Z,6.25
2023-08-22T22:05:29.253Z,5.53
2023-08-22T22:07:57.914Z,5.45
2023-08-22T22:10:27.206Z,5.22
2023-08-22T22:12:55.405Z,5.35
2023-08-22T22:15:23.649Z,5.22
2023-08-22T22:17:57.696Z,5.28
2023-08-22T22:20:35.336Z,5.25
2023-08-22T22:23:03.697Z,5.18
2023-08-22T22:25:32.276Z,5.32
2023-08-22T22:28:00.675Z,5.38
2023-08-22T22:30:29.033Z,4.65
2023-08-22T22:32:58.818Z,4.80
2023-08-22T22:35:27.345Z,4.72
2023-08-22T22:37:55.687Z,4.90
2023-08-22T22:40:24.044Z,4.70
2023-08-22T22:42:52.341Z,5.47
2023-08-22T22:45:20.596Z,5.15
2023-08-22T22:47:49.345Z,4.75
2023-08-22T22:50:19.175Z,4.75
2023-08-22T22:52:47.508Z,5.30
2023-08-22T22:55:15.865Z,4.93
2023-08-22T22:57:44.301Z,5.18
2023-08-22T23:00:14.826Z,4.38
2023-08-22T23:02:43.304Z,4.70
2023-08-22T23:05:11.664Z,4.80
2023-08-22T23:07:41.325Z,5.40
2023-08-22T23:10:10.613Z,4.40
2023-08-22T23:12:39.313Z,4.53
2023-08-22T23:15:09.039Z,4.50
2023-08-22T23:17:40.281Z,4.47
2023-08-22T23:20:12.532Z,4.78
2023-08-22T23:22:44.303Z,4.53
2023-08-22T23:25:13.601Z,4.72
2023-08-22T23:27:43.297Z,3.88
2023-08-22T23:30:15.623Z,4.05
2023-08-22T23:32:44.121Z,4.82
2023-08-22T23:35:14.359Z,4.15
2023-08-22T23:37:43.977Z,4.85
2023-08-22T23:40:26.982Z,4.35
2023-08-22T23:42:57.774Z,4.50
2023-08-22T23:45:28.695Z,4.47
2023-08-22T23:47:57.034Z,4.43
2023-08-22T23:50:26.079Z,4.32
2023-08-22T23:52:56.081Z,4.22
2023-08-22T23:55:24.575Z,4.28
2023-08-22T23:57:52.835Z,4.07
